Lanesville, Illinois
Current Conditions -  °F | °C
As of 3:52 PM on Tuesday 25 Nov 2014 (Local Time) from KSPI Reporting Station
Few Clouds Few Clouds  
Wind Chill: 30°   Ceiling: Unl
Heat Index: 34°   Visibility: 10mi
Dew Point: 25°   Wind: 5mph
Humidity: 70%   Direction: 260°W
Pressure: 30.15"   Gusts: NA
Location:  39.8448°N, 89.3474°W
Report Text: KSPI 252152Z 26004KT 10SM FEW024 01/M04 A3015 RMK AO2 SLP217 T00111039
Loading
Personal Weather Stations






























Interactive Weather Map New forecast layout! Learn more

10-Day Weather Forecast

Advertisements
Track Severe Weather on mobile